Time;durP1;ratioP1;P1;durP2;ratioP2;P2;SDS_P1;SDS_P2;PMS_P1;PMS_P2;Temp;Humidity;BMP_temperature;BMP_pressure;BME280_temperature;BME280_humidity;BME280_pressure;Samples;Min_cycle;Max_cycle;Signal;HPM_P1;HPM_P2
2022/12/25 00:02:05;;;;;;;13.40;8.95;;;6.70;86.70;;;;;;5039375;28;20103;-70
2022/12/25 00:04:30;;;;;;;16.70;9.75;;;6.70;86.90;;;;;;5039487;28;20080;-64
2022/12/25 00:06:56;;;;;;;13.18;8.80;;;6.60;87.10;;;;;;5034603;28;20034;-56
2022/12/25 00:09:21;;;;;;;12.80;8.40;;;6.60;87.50;;;;;;5034207;28;20045;-57
2022/12/25 00:11:47;;;;;;;15.90;9.20;;;6.70;87.80;;;;;;5033509;28;20071;-56
2022/12/25 00:14:13;;;;;;;16.40;9.80;;;6.70;88.00;;;;;;5033876;28;20360;-57
2022/12/25 00:16:38;;;;;;;16.23;9.88;;;6.70;88.00;;;;;;5032709;28;20025;-61
2022/12/25 00:19:04;;;;;;;14.80;9.50;;;6.70;87.80;;;;;;5033304;28;20032;-62
2022/12/25 00:21:30;;;;;;;15.30;10.00;;;6.70;87.60;;;;;;5033608;28;20357;-58
2022/12/25 00:23:57;;;;;;;18.05;9.95;;;6.70;87.80;;;;;;5032086;28;20152;-57
2022/12/25 00:26:24;;;;;;;16.58;9.95;;;6.70;87.60;;;;;;5033524;28;20582;-58
2022/12/25 00:28:52;;;;;;;16.45;9.63;;;6.70;87.70;;;;;;5034081;28;20108;-56
2022/12/25 00:31:19;;;;;;;13.30;8.07;;;6.70;87.60;;;;;;5033686;28;20379;-50
2022/12/25 00:33:46;;;;;;;14.80;8.85;;;6.60;87.80;;;;;;5033124;28;20029;-51
2022/12/25 00:36:15;;;;;;;16.40;9.82;;;6.60;87.70;;;;;;5033011;28;20037;-50
2022/12/25 00:38:41;;;;;;;12.25;8.50;;;6.60;87.90;;;;;;5031953;28;20383;-51
2022/12/25 00:41:10;;;;;;;15.38;9.15;;;6.60;87.90;;;;;;5033149;28;20041;-50
2022/12/25 00:43:37;;;;;;;14.73;9.43;;;6.60;88.10;;;;;;5031966;28;20044;-48
2022/12/25 00:46:04;;;;;;;14.85;9.93;;;6.60;88.20;;;;;;5033063;28;20029;-56
2022/12/25 00:48:31;;;;;;;14.48;9.25;;;6.60;88.90;;;;;;5032906;28;20112;-55
2022/12/25 00:50:59;;;;;;;13.50;8.95;;;6.60;88.20;;;;;;5033335;28;20572;-57
2022/12/25 00:53:25;;;;;;;12.93;8.98;;;6.60;88.10;;;;;;5033286;28;20048;-57
2022/12/25 00:56:04;;;;;;;13.80;9.27;;;6.60;88.10;;;;;;5033229;28;20063;-56
2022/12/25 00:58:31;;;;;;;16.75;10.18;;;6.60;87.70;;;;;;5032259;28;20056;-57
2022/12/25 01:00:57;;;;;;;15.68;9.73;;;6.60;87.60;;;;;;5028409;28;20037;-57
2022/12/25 01:03:24;;;;;;;15.75;9.82;;;6.50;87.60;;;;;;5032912;28;20049;-57
2022/12/25 01:06:01;;;;;;;15.98;9.80;;;6.50;87.80;;;;;;5032643;28;20040;-57
2022/12/25 01:08:29;;;;;;;16.73;10.63;;;6.40;87.90;;;;;;5033017;28;20045;-57
2022/12/25 01:10:56;;;;;;;14.40;10.18;;;6.40;88.10;;;;;;5033233;28;20156;-51
2022/12/25 01:13:22;;;;;;;17.08;11.00;;;6.30;88.50;;;;;;5032849;28;20080;-50
2022/12/25 01:15:48;;;;;;;17.15;10.30;;;6.30;88.60;;;;;;5031543;28;20057;-61
2022/12/25 01:18:14;;;;;;;17.98;11.05;;;6.30;89.10;;;;;;5033206;28;20033;-62
2022/12/25 01:20:39;;;;;;;18.58;11.02;;;6.30;89.30;;;;;;5032995;28;20453;-57
2022/12/25 01:23:05;;;;;;;17.50;10.18;;;6.30;89.60;;;;;;5032902;28;20025;-58
2022/12/25 01:25:31;;;;;;;17.02;10.35;;;6.30;89.70;;;;;;5032922;28;20037;-54
2022/12/25 01:27:57;;;;;;;15.48;9.90;;;6.30;89.80;;;;;;5032263;28;20108;-49
2022/12/25 01:30:23;;;;;;;16.90;9.68;;;6.30;90.00;;;;;;5030662;28;20180;-58
2022/12/25 01:32:48;;;;;;;14.25;9.45;;;6.30;90.00;;;;;;5032196;28;20410;-57
2022/12/25 01:35:14;;;;;;;16.52;9.95;;;6.30;90.10;;;;;;5033092;28;20033;-57
2022/12/25 01:37:39;;;;;;;13.75;9.23;;;6.30;90.20;;;;;;5032792;28;20352;-56
2022/12/25 01:40:06;;;;;;;16.40;10.93;;;6.30;90.10;;;;;;5032657;28;20032;-57
2022/12/25 01:42:32;;;;;;;15.65;10.27;;;6.30;90.10;;;;;;5032373;28;20025;-57
2022/12/25 01:45:43;;;;;;;18.80;9.80;;;6.30;90.20;;;;;;5032469;28;20052;-56
2022/12/25 01:48:16;;;;;;;15.98;9.85;;;6.30;90.10;;;;;;5025076;28;20034;-52
2022/12/25 01:50:46;;;;;;;15.75;10.27;;;6.30;90.30;;;;;;5020637;28;20456;-62
2022/12/25 01:53:12;;;;;;;15.73;10.00;;;6.30;90.40;;;;;;5032105;28;20040;-62
2022/12/25 01:55:40;;;;;;;16.05;10.07;;;6.40;90.60;;;;;;5032480;28;20029;-54
2022/12/25 01:58:06;;;;;;;15.75;10.23;;;6.40;90.60;;;;;;5032021;28;20515;-53
2022/12/25 02:00:32;;;;;;;13.52;9.00;;;6.40;90.60;;;;;;5032119;28;20120;-61
2022/12/25 02:02:58;;;;;;;13.68;8.85;;;6.40;90.60;;;;;;5030461;28;20053;-62
2022/12/25 02:05:29;;;;;;;17.65;10.20;;;6.50;90.70;;;;;;5031766;28;20044;-56
2022/12/25 02:07:59;;;;;;;13.80;8.27;;;6.50;90.60;;;;;;5032241;28;20171;-57
2022/12/25 02:10:25;;;;;;;15.48;10.25;;;6.50;90.60;;;;;;5031112;28;20036;-56
2022/12/25 02:12:51;;;;;;;16.77;10.02;;;6.60;90.60;;;;;;5031593;28;20021;-56
2022/12/25 02:15:20;;;;;;;14.57;9.32;;;6.60;90.50;;;;;;5032589;28;20341;-63
2022/12/25 02:18:06;;;;;;;14.50;8.20;;;6.60;90.50;;;;;;5032234;28;20045;-61
2022/12/25 02:21:02;;;;;;;15.70;8.98;;;6.70;90.60;;;;;;5029111;28;20026;-57
2022/12/25 02:23:37;;;;;;;12.43;8.05;;;6.70;90.50;;;;;;5023356;28;20096;-57
2022/12/25 02:26:40;;;;;;;11.73;7.95;;;6.80;90.40;;;;;;5031685;28;20045;-60
2022/12/25 02:29:14;;;;;;;12.10;7.90;;;6.80;90.50;;;;;;5031820;28;20032;-62
2022/12/25 02:31:58;;;;;;;14.30;8.38;;;6.80;90.60;;;;;;5032359;28;20117;-62
2022/12/25 02:34:48;;;;;;;13.65;8.80;;;6.80;90.60;;;;;;5031971;28;20068;-63
2022/12/25 02:37:27;;;;;;;14.13;9.13;;;6.90;90.60;;;;;;5031124;28;20033;-57
2022/12/25 02:40:17;;;;;;;12.27;8.40;;;7.00;90.50;;;;;;5031540;28;20040;-58
2022/12/25 03:07:50;;;;;;;16.00;9.35;;;7.20;89.20;;;;;;5033456;28;20487;-53
2022/12/25 03:13:05;;;;;;;13.35;8.88;;;7.20;88.60;;;;;;5032235;28;20087;-58
2022/12/25 03:18:23;;;;;;;12.98;8.90;;;7.10;88.40;;;;;;5034056;28;20043;-50
2022/12/25 03:29:05;;;;;;;11.73;7.97;;;6.90;87.80;;;;;;5034543;28;20036;-50
2022/12/25 03:31:39;;;;;;;11.48;7.65;;;6.80;88.20;;;;;;5035008;28;20025;-57
2022/12/25 04:38:13;;;;;;;11.75;7.07;;;6.70;90.10;;;;;;5033425;28;20052;-55
2022/12/25 04:40:39;;;;;;;9.77;6.18;;;6.80;90.10;;;;;;5019543;28;20030;-54
2022/12/25 04:43:04;;;;;;;8.50;5.85;;;6.80;90.20;;;;;;5032667;28;20515;-55
2022/12/25 04:45:30;;;;;;;9.45;6.93;;;6.80;90.20;;;;;;5031914;28;20056;-62
2022/12/25 04:47:58;;;;;;;10.70;6.55;;;6.80;90.30;;;;;;5033480;28;20021;-62
2022/12/25 04:50:24;;;;;;;7.03;4.97;;;6.80;90.30;;;;;;5033740;28;20452;-55
2022/12/25 04:52:49;;;;;;;9.25;6.30;;;6.90;90.30;;;;;;5032955;28;20112;-55
2022/12/25 04:55:15;;;;;;;8.80;7.13;;;6.90;90.40;;;;;;5033009;28;20026;-57
2022/12/25 04:57:41;;;;;;;9.77;6.80;;;7.00;90.30;;;;;;5033359;28;20112;-57
2022/12/25 05:00:07;;;;;;;9.25;6.65;;;7.00;90.30;;;;;;5033243;28;20032;-57
2022/12/25 05:02:33;;;;;;;10.18;7.10;;;7.00;90.30;;;;;;5032094;28;20188;-59
2022/12/25 05:04:58;;;;;;;10.00;6.55;;;7.10;90.20;;;;;;5031625;28;20113;-56
2022/12/25 05:07:24;;;;;;;9.05;6.78;;;7.10;90.20;;;;;;5032899;28;20034;-57
2022/12/25 05:09:50;;;;;;;9.38;6.45;;;7.20;90.10;;;;;;5032115;28;20032;-57
2022/12/25 05:12:15;;;;;;;7.38;5.40;;;7.20;90.10;;;;;;5032331;28;20160;-62
2022/12/25 05:14:41;;;;;;;8.30;6.07;;;7.20;90.00;;;;;;5032139;28;20025;-62
2022/12/25 05:17:07;;;;;;;9.57;6.78;;;7.20;89.80;;;;;;5032725;28;20128;-56
2022/12/25 05:19:32;;;;;;;10.63;7.55;;;7.20;89.90;;;;;;5031350;28;20045;-56
2022/12/25 05:21:58;;;;;;;9.52;6.07;;;7.30;89.70;;;;;;5032531;28;20479;-57
2022/12/25 05:24:26;;;;;;;9.23;6.53;;;7.20;89.70;;;;;;5032076;28;20029;-57
2022/12/25 05:26:51;;;;;;;12.82;7.15;;;7.20;89.80;;;;;;5032128;28;20037;-53
2022/12/25 05:29:17;;;;;;;12.95;8.07;;;7.20;90.00;;;;;;5032162;28;20582;-52
2022/12/25 05:31:43;;;;;;;12.85;7.88;;;7.20;89.80;;;;;;5032175;28;20384;-62
2022/12/25 05:34:08;;;;;;;11.63;8.25;;;7.20;89.70;;;;;;5030556;28;20396;-62
2022/12/25 05:36:34;;;;;;;14.05;7.93;;;7.20;89.50;;;;;;5030053;28;20036;-57
2022/12/25 05:39:00;;;;;;;11.07;7.78;;;7.20;89.50;;;;;;5031929;28;20018;-57
2022/12/25 05:41:25;;;;;;;11.07;7.72;;;7.20;89.50;;;;;;5032695;28;20025;-57
2022/12/25 05:43:51;;;;;;;13.25;8.75;;;7.20;89.40;;;;;;5032187;28;20060;-57
2022/12/25 05:46:17;;;;;;;12.23;7.97;;;7.20;89.30;;;;;;5032843;28;20160;-57
2022/12/25 05:48:43;;;;;;;11.38;8.05;;;7.20;89.10;;;;;;5032576;28;20025;-57
2022/12/25 05:51:13;;;;;;;13.82;8.73;;;7.20;89.00;;;;;;5032857;28;20037;-57
2022/12/25 05:53:40;;;;;;;11.70;7.68;;;7.20;88.90;;;;;;5023849;28;20091;-57
2022/12/25 05:56:08;;;;;;;11.23;8.38;;;7.20;88.80;;;;;;5032618;28;20083;-61
2022/12/25 05:58:35;;;;;;;11.90;8.05;;;7.20;88.60;;;;;;5032564;28;20033;-61
2022/12/25 06:01:01;;;;;;;15.07;8.98;;;7.20;88.50;;;;;;5032539;28;20060;-57
2022/12/25 06:03:27;;;;;;;11.10;7.57;;;7.20;88.40;;;;;;5032180;28;20054;-56
2022/12/25 06:05:53;;;;;;;12.07;8.27;;;7.20;89.10;;;;;;5032598;28;20487;-56
2022/12/25 06:08:19;;;;;;;11.15;7.53;;;7.20;88.60;;;;;;5032348;28;20036;-56
2022/12/25 06:10:45;;;;;;;10.98;7.50;;;7.10;88.70;;;;;;5033544;28;20089;-67
2022/12/25 06:13:10;;;;;;;11.40;7.50;;;7.10;88.80;;;;;;5038681;28;20336;-72
2022/12/25 06:15:40;;;;;;;11.98;7.95;;;7.10;88.90;;;;;;5037440;28;20041;-61
2022/12/25 06:18:07;;;;;;;13.00;8.98;;;7.10;88.70;;;;;;5032118;28;20419;-62
2022/12/25 06:20:32;;;;;;;10.77;7.40;;;7.20;88.50;;;;;;5032204;28;20792;-57
2022/12/25 06:22:59;;;;;;;17.08;10.25;;;7.10;88.60;;;;;;5030292;28;20055;-57
2022/12/25 06:25:24;;;;;;;16.13;9.18;;;7.10;88.50;;;;;;5031961;28;20357;-57
2022/12/25 06:27:50;;;;;;;12.95;9.40;;;7.10;88.60;;;;;;5030432;28;20048;-57
2022/12/25 06:30:15;;;;;;;14.40;10.55;;;7.10;88.60;;;;;;5032141;28;20026;-55
2022/12/25 06:32:41;;;;;;;14.27;9.13;;;7.10;88.80;;;;;;5031053;28;20021;-54
2022/12/25 06:35:07;;;;;;;12.77;9.23;;;7.00;88.90;;;;;;5031253;28;20044;-55
2022/12/25 06:37:32;;;;;;;13.77;9.85;;;7.00;89.00;;;;;;5030869;28;20365;-54
2022/12/25 06:39:58;;;;;;;14.20;9.48;;;7.00;89.20;;;;;;5029319;28;20028;-54
2022/12/25 06:42:24;;;;;;;14.95;9.93;;;7.00;89.20;;;;;;5031101;28;20028;-57
2022/12/25 06:44:49;;;;;;;10.90;7.75;;;7.00;89.50;;;;;;5029994;28;20491;-57
2022/12/25 06:47:16;;;;;;;11.73;8.05;;;7.00;89.40;;;;;;5031104;28;20085;-56
2022/12/25 06:49:41;;;;;;;11.25;8.10;;;7.00;89.50;;;;;;5030705;28;20021;-56
2022/12/25 06:52:07;;;;;;;15.02;9.85;;;7.00;89.30;;;;;;5030619;28;20093;-57
2022/12/25 06:54:33;;;;;;;13.02;8.73;;;7.10;89.30;;;;;;5031089;28;20038;-57
2022/12/25 06:56:58;;;;;;;10.40;6.68;;;7.10;89.20;;;;;;5031134;28;20045;-62
2022/12/25 06:59:24;;;;;;;10.90;7.55;;;7.10;89.30;;;;;;5030613;28;20080;-62
2022/12/25 07:01:53;;;;;;;10.07;7.30;;;7.10;89.40;;;;;;5028719;28;20434;-62
2022/12/25 07:04:36;;;;;;;9.35;6.47;;;7.20;89.30;;;;;;5031035;28;20052;-62
2022/12/25 07:07:04;;;;;;;8.90;5.82;;;7.20;89.20;;;;;;5019540;28;20108;-57
2022/12/25 07:09:29;;;;;;;9.00;6.10;;;7.30;89.10;;;;;;5031061;28;20056;-56
2022/12/25 07:12:03;;;;;;;7.85;6.03;;;7.30;89.00;;;;;;5030591;28;20021;-49
2022/12/25 07:14:29;;;;;;;11.90;7.65;;;7.30;88.80;;;;;;5030426;28;20890;-54
2022/12/25 07:16:55;;;;;;;8.93;6.45;;;7.40;88.80;;;;;;5027635;28;20052;-52
2022/12/25 07:19:21;;;;;;;10.82;7.55;;;7.40;88.50;;;;;;5030786;28;20076;-48
2022/12/25 07:21:46;;;;;;;11.65;8.60;;;7.50;88.80;;;;;;5031668;28;20029;-51
2022/12/25 07:24:18;;;;;;;11.40;8.05;;;7.50;88.00;;;;;;5029974;28;20794;-48
2022/12/25 07:26:43;;;;;;;;;;;7.40;87.90;;;;;;5028953;28;20030;-56
2022/12/25 07:29:09;;;;;;;12.45;8.90;;;7.40;87.30;;;;;;5033506;28;19920;-57
2022/12/25 07:31:35;;;;;;;13.18;8.32;;;7.40;87.90;;;;;;5033906;28;20029;-62
2022/12/25 07:34:00;;;;;;;11.80;8.73;;;7.40;88.20;;;;;;5032067;28;20460;-62
2022/12/25 07:36:26;;;;;;;11.85;8.30;;;7.30;88.20;;;;;;5034502;28;20033;-50
2022/12/25 07:38:52;;;;;;;11.82;8.25;;;7.30;88.30;;;;;;5034452;28;20057;-52
2022/12/25 07:41:18;;;;;;;12.88;9.30;;;7.30;88.30;;;;;;5034940;28;20064;-57
2022/12/25 07:43:43;;;;;;;13.90;9.88;;;7.20;88.30;;;;;;5032264;28;20041;-58
2022/12/25 07:46:09;;;;;;;12.95;9.18;;;7.20;88.40;;;;;;5034766;28;20049;-56
2022/12/25 07:48:36;;;;;;;13.07;9.32;;;7.10;88.50;;;;;;5034289;28;20025;-57
2022/12/25 07:51:08;;;;;;;11.98;8.82;;;7.10;88.60;;;;;;5034737;28;20113;-57
2022/12/25 07:53:35;;;;;;;12.82;9.32;;;7.10;88.80;;;;;;5031398;28;20388;-56
2022/12/25 07:56:06;;;;;;;11.45;8.35;;;7.10;88.90;;;;;;5034933;28;20434;-57
2022/12/25 07:58:32;;;;;;;12.32;8.48;;;7.00;89.00;;;;;;5034619;28;20086;-57
2022/12/25 08:01:07;;;;;;;12.23;9.00;;;7.00;89.20;;;;;;5024928;28;20040;-55
2022/12/25 08:03:33;;;;;;;11.73;9.00;;;7.00;89.10;;;;;;5033113;28;20157;-54
2022/12/25 08:06:01;;;;;;;13.80;9.15;;;7.00;89.20;;;;;;5034551;28;20156;-56
2022/12/25 08:08:27;;;;;;;11.25;8.77;;;7.00;89.20;;;;;;5034359;28;20030;-55
2022/12/25 08:10:52;;;;;;;11.00;8.48;;;7.00;89.20;;;;;;5034372;28;20025;-57
2022/12/25 08:13:18;;;;;;;13.18;8.85;;;7.00;89.20;;;;;;5033870;28;20030;-55
2022/12/25 08:15:44;;;;;;;14.60;8.30;;;7.00;89.30;;;;;;5035249;28;20049;-70
2022/12/25 08:18:09;;;;;;;11.52;8.65;;;7.00;89.20;;;;;;5036583;28;20029;-71
2022/12/25 08:20:35;;;;;;;10.85;8.20;;;7.00;89.30;;;;;;5038279;28;20480;-51
2022/12/25 08:23:01;;;;;;;10.60;7.97;;;7.00;89.30;;;;;;5033338;28;20376;-51
2022/12/25 08:25:27;;;;;;;10.23;8.20;;;7.00;89.30;;;;;;5033674;28;20045;-52
2022/12/25 08:27:53;;;;;;;11.73;8.48;;;7.00;89.40;;;;;;5033325;28;20353;-54
2022/12/25 08:30:18;;;;;;;10.05;7.63;;;7.00;89.50;;;;;;5030991;28;20111;-57
2022/12/25 08:32:44;;;;;;;8.82;7.18;;;7.00;89.50;;;;;;5027599;28;20387;-57
2022/12/25 08:35:10;;;;;;;10.63;8.15;;;7.00;89.60;;;;;;5032855;28;20033;-54
2022/12/25 08:37:35;;;;;;;10.93;8.07;;;7.00;89.50;;;;;;5031517;28;20487;-52
2022/12/25 08:40:01;;;;;;;10.23;7.93;;;7.00;89.50;;;;;;5031522;28;20029;-51
2022/12/25 08:42:26;;;;;;;9.85;7.85;;;7.00;89.60;;;;;;5032023;28;20072;-57
2022/12/25 08:44:52;;;;;;;9.32;7.55;;;7.00;89.70;;;;;;5030566;28;20515;-57
2022/12/25 08:47:18;;;;;;;8.90;7.75;;;7.00;89.50;;;;;;5033345;28;20440;-62
2022/12/25 08:49:43;;;;;;;11.90;8.13;;;7.00;90.00;;;;;;5033210;28;20022;-61
2022/12/25 08:52:09;;;;;;;10.23;8.20;;;7.00;89.50;;;;;;5030563;28;20033;-57
2022/12/25 08:54:35;;;;;;;10.10;7.95;;;7.00;89.60;;;;;;5033296;28;20041;-56
2022/12/25 08:57:01;;;;;;;9.55;7.63;;;7.00;89.90;;;;;;5033102;28;20025;-57
2022/12/25 08:59:27;;;;;;;10.60;8.32;;;7.00;89.80;;;;;;5032560;28;20029;-56
2022/12/25 09:01:53;;;;;;;10.93;8.75;;;7.00;90.00;;;;;;5032361;28;20117;-56
2022/12/25 09:04:18;;;;;;;10.80;7.72;;;7.00;89.80;;;;;;5029549;28;20118;-55
2022/12/25 09:06:44;;;;;;;10.10;7.43;;;7.00;89.90;;;;;;5033200;28;20029;-70
2022/12/25 09:09:09;;;;;;;10.63;8.15;;;7.00;90.00;;;;;;5032954;28;20395;-63
2022/12/25 09:11:35;;;;;;;10.25;8.23;;;7.00;90.00;;;;;;5032667;28;20391;-55
2022/12/25 09:14:01;;;;;;;10.32;8.05;;;7.00;90.00;;;;;;5032228;28;20400;-55
2022/12/25 09:16:26;;;;;;;9.60;7.78;;;7.00;90.00;;;;;;5031543;28;20059;-57
2022/12/25 09:18:55;;;;;;;8.82;7.05;;;7.10;90.00;;;;;;5031608;28;20107;-56
2022/12/25 09:21:20;;;;;;;9.52;8.15;;;7.10;90.00;;;;;;5032091;28;20021;-57
2022/12/25 09:23:46;;;;;;;9.57;7.65;;;7.00;90.00;;;;;;5030798;28;20037;-56
2022/12/25 09:26:14;;;;;;;10.80;8.05;;;7.10;90.00;;;;;;5031486;28;20021;-57
2022/12/25 09:28:40;;;;;;;10.45;8.02;;;7.10;90.00;;;;;;5031844;28;20034;-56
2022/12/25 09:31:06;;;;;;;9.85;7.53;;;7.10;90.10;;;;;;5032132;28;20029;-57
2022/12/25 09:33:32;;;;;;;8.90;7.57;;;7.10;90.10;;;;;;5032189;28;20033;-56
2022/12/25 09:36:00;;;;;;;9.75;8.02;;;7.10;90.10;;;;;;5030556;28;20468;-64
2022/12/25 09:38:27;;;;;;;9.48;7.72;;;7.10;90.10;;;;;;5030479;28;20025;-64
2022/12/25 09:41:25;;;;;;;9.80;8.32;;;7.10;90.10;;;;;;5030145;28;20526;-62
2022/12/25 09:44:04;;;;;;;9.02;7.22;;;7.10;90.00;;;;;;5031050;28;20038;-63
2022/12/25 09:46:39;;;;;;;9.05;7.18;;;7.10;90.00;;;;;;5030887;28;20049;-48
2022/12/25 09:49:11;;;;;;;8.98;7.03;;;7.10;90.00;;;;;;5030617;28;20379;-48
2022/12/25 09:51:38;;;;;;;;;;;7.10;90.00;;;;;;5031949;28;20029;-58
2022/12/25 09:54:13;;;;;;;8.05;6.95;;;7.00;89.30;;;;;;5031454;28;19905;-57
2022/12/25 09:56:38;;;;;;;8.07;6.55;;;7.00;89.90;;;;;;5030197;28;20061;-55
2022/12/25 09:59:15;;;;;;;8.23;6.57;;;7.00;90.00;;;;;;5031623;28;20480;-55
2022/12/25 10:02:17;;;;;;;8.10;7.30;;;7.00;90.00;;;;;;5031425;28;20025;-57
2022/12/25 10:05:11;;;;;;;8.75;7.15;;;6.90;90.00;;;;;;5012707;28;20055;-57
2022/12/25 10:08:07;;;;;;;10.40;7.25;;;6.90;90.00;;;;;;5029255;28;20053;-57
2022/12/25 10:10:51;;;;;;;9.68;8.02;;;6.80;90.10;;;;;;5027858;28;20034;-47
2022/12/25 10:13:41;;;;;;;8.90;7.28;;;6.80;90.20;;;;;;5031274;28;20041;-50
2022/12/25 10:16:16;;;;;;;8.30;7.05;;;6.80;90.10;;;;;;5027700;28;20064;-63
2022/12/25 10:19:13;;;;;;;8.52;6.95;;;6.70;90.20;;;;;;5028681;28;20068;-64
2022/12/25 10:21:39;;;;;;;9.00;6.68;;;6.70;90.20;;;;;;5020602;28;20614;-64
2022/12/25 10:24:30;;;;;;;9.65;7.30;;;6.60;90.50;;;;;;5029563;28;20448;-64
2022/12/25 10:26:55;;;;;;;10.55;7.80;;;6.60;90.40;;;;;;5029645;28;20471;-64
2022/12/25 10:29:21;;;;;;;10.13;8.20;;;6.60;90.60;;;;;;5029157;28;20026;-63
2022/12/25 10:31:53;;;;;;;10.30;8.15;;;6.60;90.60;;;;;;5030961;28;20033;-55
2022/12/25 10:34:19;;;;;;;11.25;8.32;;;6.60;90.70;;;;;;5027561;28;20040;-54
2022/12/25 10:36:45;;;;;;;10.85;8.15;;;6.60;90.80;;;;;;5031344;28;20022;-62
2022/12/25 10:39:23;;;;;;;10.43;8.50;;;6.60;91.00;;;;;;5030586;28;20021;-63
2022/12/25 10:42:07;;;;;;;10.38;8.25;;;6.60;90.90;;;;;;5029944;28;20071;-62
2022/12/25 10:44:33;;;;;;;11.13;8.65;;;6.60;90.90;;;;;;5030238;28;20034;-62
2022/12/25 10:47:01;;;;;;;11.15;9.18;;;6.60;91.00;;;;;;5032192;28;20029;-52
2022/12/25 10:49:37;;;;;;;9.75;8.40;;;6.60;91.10;;;;;;5030246;28;20026;-51
2022/12/25 10:52:19;;;;;;;10.35;8.15;;;6.60;91.00;;;;;;5024192;28;20041;-55
2022/12/25 10:54:44;;;;;;;10.82;8.48;;;6.60;90.90;;;;;;5026667;28;20044;-54
2022/12/25 10:57:15;;;;;;;11.15;8.38;;;6.60;91.10;;;;;;5025090;28;20480;-58
2022/12/25 10:59:46;;;;;;;9.70;7.63;;;6.60;91.10;;;;;;5019919;28;20057;-56
2022/12/25 11:02:15;;;;;;;10.25;8.18;;;6.60;91.10;;;;;;5023819;28;20029;-64
2022/12/25 11:04:41;;;;;;;10.57;8.27;;;6.50;91.00;;;;;;5032863;28;20045;-64
2022/12/25 11:07:18;;;;;;;9.25;8.10;;;6.50;91.10;;;;;;5033044;28;20041;-56
2022/12/25 11:10:21;;;;;;;11.43;8.45;;;6.50;91.10;;;;;;5032966;28;20021;-57
2022/12/25 11:12:48;;;;;;;11.57;9.02;;;6.50;90.80;;;;;;5025668;28;20041;-57
2022/12/25 11:15:44;;;;;;;11.32;9.10;;;6.50;91.10;;;;;;5035186;28;20072;-55
2022/12/25 11:18:27;;;;;;;11.05;8.98;;;6.50;90.80;;;;;;5028997;28;20041;-55
2022/12/25 11:20:54;;;;;;;10.27;8.05;;;6.50;90.90;;;;;;5031725;28;20037;-57
2022/12/25 11:23:22;;;;;;;11.07;8.52;;;6.50;91.10;;;;;;5034564;28;20029;-57
2022/12/25 11:26:14;;;;;;;11.25;9.43;;;6.50;91.10;;;;;;5034266;28;20033;-64
2022/12/25 11:28:42;;;;;;;11.13;8.85;;;6.50;90.80;;;;;;5034053;28;20091;-63
2022/12/25 11:31:15;;;;;;;15.20;11.20;;;6.50;91.10;;;;;;5029693;28;20072;-57
2022/12/25 11:33:50;;;;;;;12.20;9.75;;;6.40;91.10;;;;;;5015669;28;20100;-57
2022/12/25 11:36:33;;;;;;;13.15;9.45;;;6.40;91.00;;;;;;5023136;28;20025;-50
2022/12/25 11:39:06;;;;;;;10.65;8.57;;;6.40;91.00;;;;;;5032848;28;20028;-51
2022/12/25 11:41:33;;;;;;;12.27;9.77;;;6.40;91.10;;;;;;5032096;28;20029;-52
2022/12/25 11:44:04;;;;;;;12.02;9.65;;;6.40;91.20;;;;;;5033957;28;20037;-48
2022/12/25 11:46:40;;;;;;;12.10;8.90;;;6.40;91.10;;;;;;5035156;28;20033;-70
2022/12/25 11:49:11;;;;;;;10.52;8.02;;;6.40;91.00;;;;;;5035484;28;20218;-69
2022/12/25 11:51:40;;;;;;;9.95;7.32;;;6.30;91.10;;;;;;5035678;28;20492;-66
2022/12/25 11:54:15;;;;;;;11.05;8.00;;;6.40;91.10;;;;;;5035397;28;20407;-71
2022/12/25 11:56:41;;;;;;;12.48;9.30;;;6.30;91.10;;;;;;5032078;28;20053;-58
2022/12/25 11:59:26;;;;;;;11.00;8.85;;;6.30;91.00;;;;;;5033592;28;20029;-58
2022/12/25 12:01:56;;;;;;;10.88;8.27;;;6.30;90.90;;;;;;5033700;28;20525;-55
2022/12/25 12:04:39;;;;;;;10.20;8.10;;;6.30;91.10;;;;;;5034049;28;20045;-55
2022/12/25 12:07:17;;;;;;;12.07;7.93;;;6.30;91.10;;;;;;5020401;28;20030;-55
2022/12/25 12:10:04;;;;;;;12.45;8.35;;;6.20;91.10;;;;;;5032729;28;20183;-55
2022/12/25 12:12:39;;;;;;;10.07;7.78;;;6.30;91.00;;;;;;5034006;28;20075;-56
2022/12/25 12:15:20;;;;;;;11.32;8.30;;;6.20;91.00;;;;;;5032457;28;20438;-57
2022/12/25 12:17:46;;;;;;;8.90;7.50;;;6.20;91.10;;;;;;5033013;28;20032;-57
2022/12/25 12:20:33;;;;;;;10.05;8.25;;;6.20;91.20;;;;;;5034422;28;20524;-61
2022/12/25 12:23:02;;;;;;;10.02;7.28;;;6.20;91.00;;;;;;5034904;28;20034;-64
2022/12/25 12:25:29;;;;;;;10.02;8.13;;;6.20;91.30;;;;;;5035170;28;20060;-48
2022/12/25 12:27:58;;;;;;;11.35;7.85;;;6.20;91.30;;;;;;5032314;28;20064;-49
2022/12/25 12:30:30;;;;;;;10.40;7.95;;;6.20;91.30;;;;;;5033738;28;20037;-58
2022/12/25 12:33:00;;;;;;;10.65;7.53;;;6.20;91.30;;;;;;5020714;28;20468;-57
2022/12/25 12:35:30;;;;;;;9.45;7.72;;;6.20;91.30;;;;;;5031613;28;20098;-61
2022/12/25 12:38:13;;;;;;;9.00;7.22;;;6.20;91.30;;;;;;5032328;28;20064;-62
2022/12/25 12:40:49;;;;;;;8.88;7.53;;;6.20;91.10;;;;;;5032766;28;20025;-54
2022/12/25 12:43:33;;;;;;;9.43;6.80;;;6.20;91.20;;;;;;5032675;28;20057;-56
2022/12/25 12:46:20;;;;;;;9.52;7.28;;;6.20;91.10;;;;;;5032427;28;20045;-56
2022/12/25 12:48:48;;;;;;;9.18;7.45;;;6.20;91.00;;;;;;5032499;28;20049;-56
2022/12/25 12:51:27;;;;;;;8.88;6.70;;;6.20;91.10;;;;;;5033364;28;20030;-62
2022/12/25 12:54:04;;;;;;;9.25;7.03;;;6.20;91.00;;;;;;5032916;28;20034;-61
2022/12/25 12:56:29;;;;;;;12.52;9.95;;;6.20;91.00;;;;;;5032707;28;20036;-51
2022/12/25 12:58:55;;;;;;;10.88;7.53;;;6.20;91.00;;;;;;5031909;28;20026;-48
2022/12/25 13:01:26;;;;;;;10.07;7.45;;;6.20;91.00;;;;;;5033968;28;20471;-73
2022/12/25 13:04:09;;;;;;;10.10;7.43;;;6.20;90.90;;;;;;5027795;28;20791;-70
2022/12/25 13:07:16;;;;;;;8.68;7.28;;;6.20;90.90;;;;;;5028947;28;20815;-70
2022/12/25 13:10:00;;;;;;;8.80;7.30;;;6.20;90.70;;;;;;5030601;28;20040;-72
2022/12/25 13:12:26;;;;;;;9.40;7.32;;;6.20;90.90;;;;;;5030912;28;20025;-63
2022/12/25 13:14:52;;;;;;;8.55;6.68;;;6.20;90.90;;;;;;5032949;28;20033;-61
2022/12/25 13:17:22;;;;;;;9.80;7.13;;;6.20;90.90;;;;;;5030836;28;20037;-52
2022/12/25 13:19:59;;;;;;;8.57;7.15;;;6.20;90.90;;;;;;5030951;28;20183;-51
2022/12/25 13:22:28;;;;;;;8.68;7.28;;;6.10;90.80;;;;;;5031868;28;20025;-52
2022/12/25 13:24:56;;;;;;;8.55;6.78;;;6.10;90.80;;;;;;5019914;28;20420;-49
2022/12/25 13:27:30;;;;;;;8.18;6.57;;;6.10;90.80;;;;;;5028328;28;20042;-54
2022/12/25 13:29:57;;;;;;;7.43;6.25;;;6.10;90.80;;;;;;5029245;28;20121;-47
2022/12/25 13:32:29;;;;;;;10.45;7.18;;;6.10;90.90;;;;;;5025205;28;20066;-51
2022/12/25 13:34:56;;;;;;;8.95;6.95;;;6.10;90.80;;;;;;5027008;28;20041;-47
2022/12/25 13:37:26;;;;;;;9.73;7.40;;;6.10;90.90;;;;;;5028230;28;20029;-57
2022/12/25 13:39:55;;;;;;;9.30;7.32;;;6.10;91.00;;;;;;5029472;28;20022;-59
2022/12/25 13:42:25;;;;;;;9.82;8.40;;;6.00;90.90;;;;;;5027074;28;20037;-57
2022/12/25 13:45:02;;;;;;;12.82;8.63;;;6.00;90.90;;;;;;5026456;28;20153;-57
2022/12/25 13:47:39;;;;;;;9.38;7.72;;;6.00;90.80;;;;;;5021676;28;20025;-56
2022/12/25 13:50:19;;;;;;;7.88;6.95;;;6.00;90.80;;;;;;5028846;28;20029;-57
2022/12/25 13:52:45;;;;;;;8.00;6.65;;;6.00;90.80;;;;;;5029646;28;20056;-66
2022/12/25 13:55:14;;;;;;;8.25;7.10;;;6.00;90.80;;;;;;5026809;28;20476;-66
2022/12/25 13:57:51;;;;;;;8.63;6.95;;;6.00;90.90;;;;;;5021736;28;20112;-57
2022/12/25 14:00:34;;;;;;;8.10;6.55;;;6.00;90.90;;;;;;5031284;28;20502;-48
2022/12/25 14:03:00;;;;;;;8.95;7.18;;;6.00;90.90;;;;;;5022300;28;20077;-47
2022/12/25 14:05:36;;;;;;;9.20;7.20;;;5.90;90.80;;;;;;5023988;28;20538;-47
2022/12/25 14:08:12;;;;;;;9.43;7.45;;;6.00;90.80;;;;;;5024386;28;20038;-51
2022/12/25 14:10:39;;;;;;;8.88;6.88;;;6.00;90.80;;;;;;5020904;28;20044;-50
2022/12/25 14:13:11;;;;;;;8.25;7.05;;;6.00;90.80;;;;;;5017364;28;20495;-51
2022/12/25 14:15:38;;;;;;;9.32;6.85;;;5.90;90.80;;;;;;5019196;28;20030;-67
2022/12/25 14:18:05;;;;;;;9.80;7.18;;;5.90;90.80;;;;;;5022746;28;20041;-58
2022/12/25 14:20:40;;;;;;;10.07;7.50;;;5.90;90.80;;;;;;5022075;28;20115;-53
2022/12/25 14:23:06;;;;;;;9.10;7.10;;;5.90;90.70;;;;;;5016391;28;20574;-50
2022/12/25 14:25:41;;;;;;;8.00;6.60;;;5.90;90.80;;;;;;5017059;28;20049;-56
2022/12/25 14:28:16;;;;;;;9.77;7.85;;;5.90;90.70;;;;;;5016114;28;20083;-58
2022/12/25 14:30:42;;;;;;;8.48;7.22;;;5.90;90.80;;;;;;5019716;28;20479;-53
2022/12/25 14:33:18;;;;;;;9.20;7.03;;;5.90;90.80;;;;;;5018393;28;20064;-51
2022/12/25 14:35:45;;;;;;;8.73;7.07;;;5.90;90.80;;;;;;5016749;28;20361;-58
2022/12/25 14:38:26;;;;;;;10.57;7.93;;;5.90;90.80;;;;;;5030919;28;20026;-58
2022/12/25 14:41:06;;;;;;;8.38;7.18;;;5.90;90.70;;;;;;5025976;28;20083;-56
2022/12/25 14:43:33;;;;;;;8.43;7.47;;;5.80;90.60;;;;;;5023355;28;20029;-54
2022/12/25 14:46:01;;;;;;;12.50;10.88;;;5.80;90.70;;;;;;5022079;28;20028;-51
2022/12/25 14:48:30;;;;;;;10.35;7.97;;;5.80;90.80;;;;;;5023722;28;20036;-49
2022/12/25 14:51:01;;;;;;;7.55;6.68;;;5.80;90.90;;;;;;5028841;28;20037;-49